Time;durP1;ratioP1;P1;durP2;ratioP2;P2;SDS_P1;SDS_P2;PMS_P1;PMS_P2;Temp;Humidity;BMP_temperature;BMP_pressure;BME280_temperature;BME280_humidity;BME280_pressure;Samples;Min_cycle;Max_cycle;Signal;HPM_P1;HPM_P2
2023/02/02 00:01:56;;;;;;;;;;;8.00;99.90;;;;;;4999151;28;20033;-93
2023/02/02 00:04:28;;;;;;;19.25;3.55;;;8.00;99.90;;;;;;4999104;28;19909;-93
2023/02/02 00:06:55;;;;;;;20.35;3.85;;;8.00;99.90;;;;;;4998697;28;20037;-93
2023/02/02 00:09:22;;;;;;;20.92;4.47;;;8.00;99.90;;;;;;4982930;28;20042;-94
2023/02/02 00:11:49;;;;;;;22.35;4.45;;;8.00;99.90;;;;;;4998805;28;20030;-94
2023/02/02 00:14:16;;;;;;;23.33;4.70;;;8.00;99.90;;;;;;4998934;28;20169;-93
2023/02/02 00:16:47;;;;;;;25.55;5.57;;;8.10;99.90;;;;;;4998695;28;20038;-94
2023/02/02 00:19:21;;;;;;;20.48;5.57;;;8.10;99.90;;;;;;4998389;28;20034;-94
2023/02/02 00:21:47;;;;;;;22.52;5.28;;;8.10;99.90;;;;;;4998672;28;20113;-93
2023/02/02 00:24:19;;;;;;;25.65;5.35;;;8.10;99.90;;;;;;4982467;28;20119;-94
2023/02/02 00:26:53;;;;;;;33.50;6.20;;;8.10;99.90;;;;;;4998057;28;20045;-94
2023/02/02 00:29:28;;;;;;;23.58;5.07;;;8.10;99.90;;;;;;4999747;28;20050;-94
2023/02/02 00:31:53;;;;;;;23.67;5.20;;;8.10;99.90;;;;;;4998010;28;20482;-94
2023/02/02 00:34:20;;;;;;;31.30;5.32;;;8.10;99.90;;;;;;4982112;28;20041;-94
2023/02/02 00:36:47;;;;;;;35.60;5.90;;;8.20;99.90;;;;;;4997862;28;20057;-94
2023/02/02 00:39:19;;;;;;;25.17;4.90;;;8.10;99.90;;;;;;4981772;28;20062;-94
2023/02/02 00:41:45;;;;;;;24.33;5.60;;;8.20;99.90;;;;;;4997890;28;20080;-93
2023/02/02 00:46:59;;;;;;;22.90;4.40;;;8.20;99.90;;;;;;5016085;28;20134;-94
2023/02/02 00:49:24;;;;;;;28.98;4.95;;;8.20;99.90;;;;;;4997575;28;20108;-94
2023/02/02 00:51:50;;;;;;;33.03;5.70;;;8.20;99.90;;;;;;4965373;28;20479;-94
2023/02/02 00:54:16;;;;;;;34.38;5.28;;;8.20;99.90;;;;;;4981509;28;20042;-93
2023/02/02 00:56:42;;;;;;;28.05;4.47;;;8.30;99.90;;;;;;4966631;28;20040;-93
2023/02/02 00:59:07;;;;;;;32.67;4.78;;;8.20;99.90;;;;;;4998518;28;20045;-94
2023/02/02 01:01:33;;;;;;;32.13;4.88;;;8.20;99.90;;;;;;4988973;28;20099;-93
2023/02/02 01:04:00;;;;;;;31.05;4.72;;;8.20;99.90;;;;;;4981486;28;20061;-93
2023/02/02 01:06:26;;;;;;;29.00;3.95;;;8.20;99.90;;;;;;4982817;28;20121;-93
2023/02/02 01:08:52;;;;;;;22.45;4.38;;;8.20;99.90;;;;;;4997831;28;20523;-93
2023/02/02 01:11:18;;;;;;;27.52;4.03;;;8.20;99.90;;;;;;4981778;28;20037;-93
2023/02/02 01:13:43;;;;;;;32.17;4.82;;;8.20;99.90;;;;;;4965680;28;20113;-94
2023/02/02 01:16:10;;;;;;;24.25;3.55;;;8.20;99.90;;;;;;4997482;28;20055;-94
2023/02/02 01:18:36;;;;;;;25.17;4.18;;;8.20;99.90;;;;;;4997703;28;20038;-92
2023/02/02 01:21:07;;;;;;;19.70;3.88;;;8.20;99.90;;;;;;4997842;28;20030;-93
2023/02/02 01:23:35;;;;;;;19.75;4.03;;;8.20;99.90;;;;;;4997532;28;20095;-93
2023/02/02 01:26:03;;;;;;;22.67;3.85;;;8.20;99.90;;;;;;4998123;28;20022;-93
2023/02/02 01:28:29;;;;;;;27.60;4.45;;;8.20;99.90;;;;;;4997539;28;20030;-93
2023/02/02 01:30:55;;;;;;;20.05;4.93;;;8.20;99.90;;;;;;4997350;28;20034;-93
2023/02/02 01:33:25;;;;;;;17.60;3.78;;;8.20;99.90;;;;;;4981613;28;20034;-94
2023/02/02 01:35:53;;;;;;;24.90;4.38;;;8.20;99.90;;;;;;4998557;28;20038;-93
2023/02/02 01:38:21;;;;;;;20.73;4.20;;;8.20;99.90;;;;;;5000083;28;20037;-94
2023/02/02 01:40:49;;;;;;;19.45;4.28;;;8.20;99.90;;;;;;4983754;28;20045;-94
2023/02/02 01:43:27;;;;;;;23.67;4.78;;;8.20;99.90;;;;;;4998214;28;20030;-94
2023/02/02 01:45:55;;;;;;;23.08;4.30;;;8.20;99.90;;;;;;4998248;28;20065;-94
2023/02/02 01:48:28;;;;;;;17.35;3.95;;;8.20;99.90;;;;;;4981076;28;20487;-93
2023/02/02 01:50:58;;;;;;;25.33;4.13;;;8.20;99.90;;;;;;4997152;28;20037;-93
2023/02/02 01:53:24;;;;;;;26.57;4.70;;;8.20;99.90;;;;;;4997954;28;20030;-94
2023/02/02 01:55:51;;;;;;;25.35;4.93;;;8.20;99.90;;;;;;5003909;28;20030;-93
2023/02/02 01:58:21;;;;;;;23.70;4.38;;;8.20;99.90;;;;;;4981012;28;20041;-94
2023/02/02 02:00:47;;;;;;;;;;;8.10;99.90;;;;;;4997776;28;20034;-93
2023/02/02 02:03:17;;;;;;;26.70;4.28;;;8.10;99.90;;;;;;4997830;28;20313;-93
2023/02/02 02:06:01;;;;;;;21.33;4.07;;;8.10;99.90;;;;;;4999654;28;20072;-93
2023/02/02 02:08:31;;;;;;;24.20;3.75;;;8.10;99.90;;;;;;5001062;28;20099;-93
2023/02/02 02:10:57;;;;;;;19.37;3.60;;;8.10;99.90;;;;;;5000789;28;20041;-93
2023/02/02 02:16:17;;;;;;;19.77;3.67;;;8.10;99.90;;;;;;4968354;28;20041;-94
2023/02/02 02:16:41;;;;;;;18.15;3.20;;;8.10;99.90;;;;;;5018005;28;20037;-94
2023/02/02 02:19:22;;;;;;;18.67;3.15;;;8.10;99.90;;;;;;5001193;28;20377;-94
2023/02/02 02:29:04;;;;;;;14.32;2.78;;;8.10;99.90;;;;;;5019546;28;20157;-92
2023/02/02 02:31:43;;;;;;;15.07;2.75;;;8.00;99.90;;;;;;5000338;28;20030;-93
2023/02/02 02:34:21;;;;;;;13.02;2.45;;;8.00;99.90;;;;;;5000233;28;20026;-92
2023/02/02 02:37:09;;;;;;;17.75;3.03;;;8.00;99.90;;;;;;5000242;28;20034;-93
2023/02/02 02:39:54;;;;;;;19.60;3.17;;;8.00;99.90;;;;;;5000029;28;20076;-94
2023/02/02 02:42:24;;;;;;;15.40;2.67;;;8.00;99.90;;;;;;5010800;28;20060;-94
2023/02/02 02:44:52;;;;;;;18.83;4.63;;;8.00;99.90;;;;;;5019438;28;20050;-93
2023/02/02 02:47:19;;;;;;;12.18;3.00;;;8.00;99.90;;;;;;4997978;28;20054;-94
2023/02/02 02:49:47;;;;;;;13.48;2.97;;;8.00;99.90;;;;;;5017863;28;20041;-94
2023/02/02 02:52:12;;;;;;;13.20;3.65;;;8.00;99.90;;;;;;5012724;28;20072;-93
2023/02/02 02:55:04;;;;;;;21.42;3.63;;;8.00;99.90;;;;;;5018324;28;20042;-94
2023/02/02 02:57:56;;;;;;;22.17;3.50;;;8.00;99.90;;;;;;5015639;28;20044;-93
2023/02/02 03:00:40;;;;;;;17.25;3.75;;;8.00;99.90;;;;;;4999149;28;20038;-94
2023/02/02 03:03:34;;;;;;;20.33;3.92;;;8.00;99.90;;;;;;5002380;28;20034;-94
2023/02/02 03:06:35;;;;;;;15.45;3.60;;;7.90;99.90;;;;;;4992210;28;20073;-94
2023/02/02 03:09:07;;;;;;;18.23;3.75;;;7.90;99.90;;;;;;4983514;28;20426;-94
2023/02/02 03:11:34;;;;;;;19.50;3.72;;;7.90;99.90;;;;;;5000669;28;20032;-94
2023/02/02 03:14:01;;;;;;;22.05;3.90;;;7.90;99.90;;;;;;4967620;28;20041;-94
2023/02/02 03:16:27;;;;;;;20.27;4.50;;;7.90;99.90;;;;;;5019228;28;20057;-95
2023/02/02 03:18:54;;;;;;;15.40;3.58;;;7.90;99.90;;;;;;5002066;28;20071;-94
2023/02/02 03:21:20;;;;;;;16.42;3.50;;;7.90;99.90;;;;;;4997235;28;20038;-94
2023/02/02 03:23:46;;;;;;;20.52;3.85;;;7.90;99.90;;;;;;4984962;28;20042;-93
2023/02/02 03:26:12;;;;;;;19.05;3.80;;;7.90;99.90;;;;;;4984390;28;20558;-94
2023/02/02 03:28:38;;;;;;;16.23;3.75;;;7.90;99.90;;;;;;4983420;28;20100;-95
2023/02/02 03:31:04;;;;;;;15.18;3.83;;;7.90;99.90;;;;;;4983411;28;20034;-95
2023/02/02 03:33:32;;;;;;;16.88;4.80;;;7.90;99.90;;;;;;4983235;28;20065;-95
2023/02/02 03:35:58;;;;;;;20.77;5.47;;;7.90;99.90;;;;;;4998970;28;20033;-94
2023/02/02 03:38:26;;;;;;;17.00;4.20;;;7.90;99.90;;;;;;4982975;28;20538;-95
2023/02/02 03:40:52;;;;;;;16.05;4.10;;;7.90;99.90;;;;;;4982871;28;20034;-94
2023/02/02 03:43:22;;;;;;;20.35;4.15;;;7.90;99.90;;;;;;4966990;28;20510;-95
2023/02/02 03:45:54;;;;;;;19.07;4.33;;;7.90;99.90;;;;;;5004024;28;20060;-94
2023/02/02 03:48:19;;;;;;;21.40;4.50;;;7.90;99.90;;;;;;4985366;28;20041;-93
2023/02/02 03:50:45;;;;;;;21.90;4.10;;;7.90;99.90;;;;;;5006242;28;20037;-94
2023/02/02 03:53:11;;;;;;;22.70;4.93;;;7.90;99.90;;;;;;4981468;28;20030;-93
2023/02/02 03:55:39;;;;;;;21.10;4.45;;;7.90;99.90;;;;;;4999751;28;20033;-94
2023/02/02 03:58:05;;;;;;;26.02;4.45;;;7.90;99.90;;;;;;4990237;28;20026;-94
2023/02/02 04:00:30;;;;;;;18.92;4.15;;;7.90;99.90;;;;;;5005454;28;20069;-93
2023/02/02 04:02:56;;;;;;;25.50;4.97;;;8.00;99.90;;;;;;4982735;28;20045;-94
2023/02/02 04:05:22;;;;;;;33.10;5.85;;;7.90;99.90;;;;;;4983305;28;20034;-93
2023/02/02 04:07:48;;;;;;;30.48;5.00;;;7.90;99.90;;;;;;4982735;28;20042;-93
2023/02/02 04:10:13;;;;;;;28.30;4.95;;;7.90;99.90;;;;;;4987337;28;20116;-94
2023/02/02 04:12:42;;;;;;;20.95;4.53;;;8.00;99.90;;;;;;5004868;28;20058;-93
2023/02/02 04:15:08;;;;;;;27.48;5.10;;;8.00;99.90;;;;;;4999359;28;20041;-93
2023/02/02 04:17:34;;;;;;;31.58;5.15;;;7.90;99.90;;;;;;4982535;28;20067;-93
2023/02/02 04:20:00;;;;;;;28.65;5.10;;;7.90;99.90;;;;;;4998532;28;20482;-93
2023/02/02 04:22:26;;;;;;;30.60;5.95;;;8.00;99.90;;;;;;4967839;28;20038;-94
2023/02/02 04:24:52;;;;;;;26.10;4.82;;;8.00;99.90;;;;;;4999801;28;20081;-94
2023/02/02 04:27:18;;;;;;;28.88;6.15;;;8.00;99.90;;;;;;4968822;28;20045;-94
2023/02/02 04:29:44;;;;;;;39.00;5.43;;;8.00;99.90;;;;;;5001639;28;20112;-94
2023/02/02 04:32:09;;;;;;;40.13;5.75;;;8.00;99.90;;;;;;5005841;28;20479;-93
2023/02/02 04:34:35;;;;;;;31.20;4.65;;;8.00;99.90;;;;;;5016128;28;20483;-93
2023/02/02 04:37:01;;;;;;;23.95;4.78;;;8.00;99.90;;;;;;4988723;28;20053;-94
2023/02/02 04:39:26;;;;;;;24.33;4.65;;;8.00;99.90;;;;;;4984568;28;20548;-93
2023/02/02 04:41:52;;;;;;;22.05;5.30;;;8.00;99.90;;;;;;4981611;28;20041;-93
2023/02/02 04:44:18;;;;;;;22.88;4.78;;;8.00;99.90;;;;;;4965908;28;20066;-92
2023/02/02 04:46:44;;;;;;;28.52;5.72;;;8.00;99.90;;;;;;4983188;28;20533;-93
2023/02/02 04:49:10;;;;;;;29.77;5.55;;;8.00;99.90;;;;;;4965684;28;20037;-93
2023/02/02 04:51:37;;;;;;;18.52;4.90;;;8.00;99.90;;;;;;4998348;28;20046;-93
2023/02/02 04:54:04;;;;;;;21.13;4.65;;;8.00;99.90;;;;;;4981953;28;20026;-92
2023/02/02 04:56:30;;;;;;;24.25;4.25;;;8.10;99.90;;;;;;4998023;28;20026;-94
2023/02/02 04:58:56;;;;;;;19.30;4.40;;;8.10;99.90;;;;;;4981863;28;20132;-93
2023/02/02 05:01:22;;;;;;;26.23;4.97;;;8.10;99.90;;;;;;4982147;28;20461;-94
2023/02/02 05:03:48;;;;;;;26.02;4.53;;;8.10;99.90;;;;;;4998632;28;20132;-93
2023/02/02 05:06:15;;;;;;;18.90;3.88;;;8.10;99.90;;;;;;4982460;28;20042;-93
2023/02/02 05:08:42;;;;;;;23.58;4.88;;;8.10;99.90;;;;;;4998835;28;20033;-93
2023/02/02 05:11:34;;;;;;;26.42;4.35;;;8.10;99.90;;;;;;4983360;28;20124;-94
2023/02/02 05:13:59;;;;;;;27.02;4.95;;;8.10;99.90;;;;;;4976883;28;20042;-94
2023/02/02 05:16:25;;;;;;;24.45;4.10;;;8.10;99.90;;;;;;4997581;28;20073;-93
2023/02/02 05:18:53;;;;;;;29.73;4.80;;;8.10;99.90;;;;;;4981390;28;20169;-94
2023/02/02 05:21:20;;;;;;;26.33;4.95;;;8.10;99.90;;;;;;4997579;28;20030;-94
2023/02/02 05:23:46;;;;;;;28.80;4.90;;;8.10;99.90;;;;;;4997783;28;20022;-94
2023/02/02 05:26:18;;;;;;;25.02;4.40;;;8.10;99.90;;;;;;4997679;28;20545;-94
2023/02/02 05:28:43;;;;;;;33.97;5.50;;;8.10;99.90;;;;;;4997965;28;20125;-94
2023/02/02 05:31:09;;;;;;;22.63;3.97;;;8.10;99.90;;;;;;4965546;28;20125;-94
2023/02/02 05:33:35;;;;;;;27.23;4.40;;;8.10;99.90;;;;;;4982241;28;20045;-93
2023/02/02 05:36:01;;;;;;;25.55;4.32;;;8.10;99.90;;;;;;4981867;28;20034;-94
2023/02/02 05:38:29;;;;;;;22.50;4.10;;;8.10;99.90;;;;;;4982191;28;20146;-93
2023/02/02 05:40:56;;;;;;;23.00;4.22;;;8.10;99.90;;;;;;4982295;28;20038;-94
2023/02/02 05:43:24;;;;;;;29.02;4.82;;;8.10;99.90;;;;;;4985999;28;20442;-94
2023/02/02 05:45:50;;;;;;;23.10;4.25;;;8.10;99.90;;;;;;4986588;28;20044;-92
2023/02/02 05:48:18;;;;;;;32.42;4.80;;;8.10;99.90;;;;;;4985571;28;20128;-92
2023/02/02 05:50:53;;;;;;;26.23;5.75;;;8.10;99.90;;;;;;5001789;28;20126;-93
2023/02/02 05:53:19;;;;;;;23.90;4.28;;;8.10;99.90;;;;;;5000870;28;20058;-92
2023/02/02 05:55:45;;;;;;;23.67;4.65;;;8.10;99.90;;;;;;5001609;28;20414;-94
2023/02/02 05:58:10;;;;;;;21.67;4.53;;;8.10;99.90;;;;;;4984818;28;20128;-92
2023/02/02 06:00:36;;;;;;;22.52;4.88;;;8.20;99.90;;;;;;5000894;28;20038;-91
2023/02/02 06:03:02;;;;;;;29.30;4.30;;;8.10;99.90;;;;;;5000670;28;20030;-92
2023/02/02 06:05:28;;;;;;;28.45;5.30;;;8.20;99.90;;;;;;5001269;28;20406;-93
2023/02/02 06:07:54;;;;;;;27.98;4.65;;;8.20;99.90;;;;;;5001043;28;20483;-92
2023/02/02 06:10:19;;;;;;;31.75;5.80;;;8.20;99.90;;;;;;5001011;28;20472;-93
2023/02/02 06:12:45;;;;;;;28.95;4.72;;;8.20;99.90;;;;;;4968685;28;20044;-92
2023/02/02 06:15:11;;;;;;;25.85;4.63;;;8.20;99.90;;;;;;5002566;28;20460;-93
2023/02/02 06:17:36;;;;;;;20.70;4.57;;;8.20;99.90;;;;;;4985724;28;20125;-92
2023/02/02 06:20:03;;;;;;;31.33;4.90;;;8.20;99.90;;;;;;4992051;28;20042;-92
2023/02/02 06:22:30;;;;;;;29.40;4.85;;;8.20;99.90;;;;;;5003562;28;20032;-93
2023/02/02 06:24:56;;;;;;;23.25;4.97;;;8.30;99.90;;;;;;4996733;28;20093;-91
2023/02/02 06:27:23;;;;;;;22.40;4.28;;;8.20;99.90;;;;;;5031044;28;20046;-93
2023/02/02 06:29:49;;;;;;;21.23;4.82;;;8.30;99.90;;;;;;5010570;28;20426;-93
2023/02/02 06:32:14;;;;;;;20.40;4.93;;;8.30;99.90;;;;;;5003145;28;20026;-93
2023/02/02 06:34:40;;;;;;;29.30;5.00;;;8.30;99.90;;;;;;5009563;28;20141;-92
2023/02/02 06:37:06;;;;;;;21.25;4.60;;;8.30;99.90;;;;;;4970433;28;20042;-92
2023/02/02 06:39:31;;;;;;;32.67;6.13;;;8.30;99.90;;;;;;5000569;28;20036;-91
2023/02/02 06:41:57;;;;;;;37.60;5.55;;;8.30;99.90;;;;;;4984351;28;20165;-92
2023/02/02 06:44:23;;;;;;;24.17;4.75;;;8.30;99.90;;;;;;4967673;28;20034;-91
2023/02/02 06:46:49;;;;;;;19.65;4.63;;;8.30;99.90;;;;;;4967644;28;20030;-92
2023/02/02 06:49:14;;;;;;;33.72;5.40;;;8.30;99.90;;;;;;4967358;28;20038;-92
2023/02/02 06:51:40;;;;;;;18.88;4.43;;;8.30;99.90;;;;;;4999625;28;20042;-93
2023/02/02 06:54:06;;;;;;;25.48;5.53;;;8.30;99.90;;;;;;4999243;28;20040;-94
2023/02/02 06:56:32;;;;;;;21.48;4.57;;;8.30;99.90;;;;;;4967797;28;20038;-93
2023/02/02 06:58:57;;;;;;;22.33;4.47;;;8.30;99.90;;;;;;4983948;28;20065;-94
2023/02/02 07:01:23;;;;;;;18.48;4.10;;;8.30;99.90;;;;;;4999772;28;20088;-94
2023/02/02 07:03:50;;;;;;;28.80;4.82;;;8.30;99.90;;;;;;4967351;28;20048;-93
2023/02/02 07:06:21;;;;;;;22.42;5.57;;;8.30;99.90;;;;;;4983768;28;20057;-94
2023/02/02 07:08:49;;;;;;;24.95;4.47;;;8.30;99.90;;;;;;5000176;28;20034;-94
2023/02/02 07:11:16;;;;;;;20.80;4.25;;;8.30;99.90;;;;;;4999595;28;20030;-93
2023/02/02 07:13:43;;;;;;;28.67;4.47;;;8.30;99.90;;;;;;4983491;28;20037;-93
2023/02/02 07:16:09;;;;;;;21.23;3.80;;;8.30;99.90;;;;;;4983392;28;20061;-93
2023/02/02 07:18:38;;;;;;;22.40;4.60;;;8.30;99.90;;;;;;4982984;28;20037;-93
2023/02/02 07:21:05;;;;;;;21.60;4.45;;;8.30;99.90;;;;;;4999252;28;20026;-94
2023/02/02 07:23:33;;;;;;;27.35;4.30;;;8.30;99.90;;;;;;4967908;28;20483;-94
2023/02/02 07:26:10;;;;;;;23.17;4.85;;;8.30;99.90;;;;;;4984262;28;20049;-92
2023/02/02 07:28:35;;;;;;;30.77;5.20;;;8.30;99.90;;;;;;4986327;28;20045;-91
2023/02/02 07:31:21;;;;;;;26.15;5.65;;;8.30;99.90;;;;;;5002037;28;20033;-93
2023/02/02 07:33:48;;;;;;;28.52;5.70;;;8.30;99.90;;;;;;4999289;28;20038;-92
2023/02/02 07:36:16;;;;;;;23.80;4.63;;;8.30;99.90;;;;;;4982680;28;20041;-92
2023/02/02 07:38:42;;;;;;;25.40;4.97;;;8.30;99.90;;;;;;4999137;28;20026;-92
2023/02/02 07:41:08;;;;;;;20.73;5.32;;;8.30;99.90;;;;;;4983068;28;20041;-92
2023/02/02 07:43:34;;;;;;;26.38;5.75;;;8.30;99.90;;;;;;4983129;28;20042;-92
2023/02/02 07:46:05;;;;;;;31.35;5.45;;;8.30;99.90;;;;;;4983395;28;20080;-94
2023/02/02 07:48:34;;;;;;;27.27;5.63;;;8.30;99.90;;;;;;5001379;28;20054;-92
2023/02/02 07:51:36;;;;;;;29.42;5.30;;;8.30;99.90;;;;;;5002790;28;20065;-92
2023/02/02 07:54:05;;;;;;;27.92;5.82;;;8.30;99.90;;;;;;4993351;28;20483;-93
2023/02/02 07:56:30;;;;;;;23.52;5.32;;;8.30;99.90;;;;;;5004488;28;20109;-93
2023/02/02 07:58:57;;;;;;;21.02;5.07;;;8.30;99.90;;;;;;5013451;28;20053;-93
2023/02/02 08:01:25;;;;;;;30.27;6.22;;;8.30;99.90;;;;;;5005710;28;20049;-93
2023/02/02 08:03:52;;;;;;;33.35;6.90;;;8.30;99.90;;;;;;5022283;28;20037;-93
2023/02/02 08:06:27;;;;;;;24.75;6.10;;;8.40;99.90;;;;;;5021629;28;20045;-93
2023/02/02 08:08:53;;;;;;;27.98;5.57;;;8.40;99.90;;;;;;5020009;28;20036;-93
2023/02/02 08:11:21;;;;;;;24.83;5.97;;;8.30;99.90;;;;;;5003573;28;20038;-92
2023/02/02 08:13:53;;;;;;;25.08;5.93;;;8.40;99.90;;;;;;5020478;28;20044;-93
2023/02/02 08:16:19;;;;;;;25.48;5.63;;;8.40;99.90;;;;;;5000445;28;20034;-93
2023/02/02 08:18:45;;;;;;;26.85;6.60;;;8.40;99.90;;;;;;4982116;28;20042;-92
2023/02/02 08:21:11;;;;;;;29.27;6.45;;;8.40;99.90;;;;;;4998112;28;20053;-92
2023/02/02 08:23:39;;;;;;;25.98;5.68;;;8.40;99.90;;;;;;4998056;28;20076;-91
2023/02/02 08:26:06;;;;;;;31.00;6.45;;;8.40;99.90;;;;;;4998120;28;20081;-92
2023/02/02 08:28:31;;;;;;;29.33;5.18;;;8.40;99.90;;;;;;4998101;28;20034;-92
2023/02/02 08:34:19;;;;;;;25.75;6.40;;;8.40;99.90;;;;;;5031746;28;20045;-92
2023/02/02 08:36:48;;;;;;;32.45;5.68;;;8.30;99.90;;;;;;5013666;28;20055;-94
2023/02/02 08:39:13;;;;;;;35.30;6.00;;;8.40;99.90;;;;;;4996954;28;20034;-94
2023/02/02 08:41:39;;;;;;;30.17;5.68;;;8.40;99.90;;;;;;4992747;28;20399;-92
2023/02/02 08:44:10;;;;;;;29.63;6.53;;;8.40;99.90;;;;;;4993832;28;20038;-93
2023/02/02 08:46:36;;;;;;;;;;;8.40;99.90;;;;;;5003079;28;20037;-92
2023/02/02 08:49:02;;;;;;;28.33;5.68;;;8.40;99.90;;;;;;5001847;28;19920;-93
2023/02/02 08:51:27;;;;;;;31.90;5.63;;;8.40;99.90;;;;;;4982117;28;20034;-94
2023/02/02 08:53:53;;;;;;;24.35;5.22;;;8.40;99.90;;;;;;4966007;28;20383;-94
2023/02/02 08:56:20;;;;;;;24.45;5.90;;;8.40;99.90;;;;;;4981983;28;20092;-93
2023/02/02 08:58:48;;;;;;;26.98;5.55;;;8.40;99.90;;;;;;4997701;28;20062;-94
2023/02/02 09:01:17;;;;;;;25.63;5.80;;;8.40;99.90;;;;;;4997830;28;20117;-93
2023/02/02 09:03:42;;;;;;;30.50;5.85;;;8.40;99.90;;;;;;4997910;28;20054;-93
2023/02/02 09:06:11;;;;;;;31.50;5.15;;;8.50;99.90;;;;;;5001502;28;20064;-91
2023/02/02 09:08:36;;;;;;;39.80;6.07;;;8.50;99.90;;;;;;5000119;28;20439;-91
2023/02/02 09:11:07;;;;;;;27.17;6.57;;;8.50;99.90;;;;;;4966204;28;20038;-91
2023/02/02 09:13:34;;;;;;;;;;;8.50;99.90;;;;;;4998669;28;20030;-92
2023/02/02 09:16:37;;;;;;;32.00;5.47;;;8.50;99.90;;;;;;5000396;28;19905;-92
2023/02/02 09:19:03;;;;;;;38.67;6.35;;;8.50;99.90;;;;;;5004539;28;20034;-90
2023/02/02 09:21:29;;;;;;;28.25;5.43;;;8.50;99.90;;;;;;4984702;28;20049;-92
2023/02/02 09:23:55;;;;;;;23.63;5.15;;;8.50;99.90;;;;;;4970825;28;20136;-93
2023/02/02 09:26:26;;;;;;;20.77;5.75;;;8.50;99.90;;;;;;4954403;28;20038;-92
2023/02/02 09:28:55;;;;;;;22.38;5.20;;;8.50;99.90;;;;;;4989305;28;20030;-93
2023/02/02 09:31:22;;;;;;;31.85;5.40;;;8.50;99.90;;;;;;4972699;28;20022;-92
2023/02/02 09:33:48;;;;;;;26.38;5.93;;;8.60;99.90;;;;;;5005287;28;20130;-92
2023/02/02 09:36:17;;;;;;;31.80;6.50;;;8.60;99.90;;;;;;5003637;28;20058;-92
2023/02/02 09:38:43;;;;;;;26.17;5.35;;;8.60;99.90;;;;;;5007014;28;20501;-92
2023/02/02 09:41:33;;;;;;;28.05;5.85;;;8.60;99.90;;;;;;5014757;28;20010;-92
2023/02/02 09:44:11;;;;;;;26.63;6.53;;;8.60;99.90;;;;;;5026217;28;20038;-92
2023/02/02 09:46:37;;;;;;;28.55;5.45;;;8.60;99.90;;;;;;5044315;28;20117;-92
2023/02/02 09:49:09;;;;;;;31.30;6.35;;;8.60;99.90;;;;;;5012319;28;20487;-92
2023/02/02 09:51:40;;;;;;;21.00;4.60;;;8.60;99.90;;;;;;5004362;28;20026;-92
2023/02/02 09:54:15;;;;;;;20.35;5.13;;;8.60;99.90;;;;;;5005248;28;20107;-91
2023/02/02 09:56:43;;;;;;;29.02;6.05;;;8.60;99.90;;;;;;5004557;28;20032;-91
2023/02/02 09:59:22;;;;;;;20.85;5.22;;;8.60;99.90;;;;;;5004411;28;20044;-91
2023/02/02 10:01:54;;;;;;;20.98;4.38;;;8.70;99.90;;;;;;5003791;28;20048;-91
2023/02/02 10:04:38;;;;;;;24.27;5.20;;;8.70;99.90;;;;;;5004488;28;20124;-91
2023/02/02 10:07:25;;;;;;;25.23;4.80;;;8.70;99.90;;;;;;5004037;28;20034;-91
2023/02/02 10:10:19;;;;;;;24.02;5.07;;;8.70;99.90;;;;;;5003578;28;20570;-91
2023/02/02 10:13:17;;;;;;;27.67;4.90;;;8.70;99.90;;;;;;5001866;28;20042;-92
2023/02/02 10:16:17;;;;;;;25.30;4.97;;;8.70;99.90;;;;;;4997427;28;20097;-92
2023/02/02 10:19:09;;;;;;;25.40;4.63;;;8.70;99.90;;;;;;4990141;28;20459;-92
2023/02/02 10:22:02;;;;;;;23.65;5.25;;;8.70;99.90;;;;;;5010642;28;20124;-91
2023/02/02 10:24:30;;;;;;;26.25;4.72;;;8.70;99.90;;;;;;5026870;28;20026;-91
2023/02/02 10:27:30;;;;;;;20.50;4.40;;;8.70;99.90;;;;;;5010498;28;20010;-91
2023/02/02 10:30:00;;;;;;;23.05;4.97;;;8.70;99.90;;;;;;5000940;28;20088;-91
2023/02/02 10:33:15;;;;;;;15.00;4.35;;;8.80;99.90;;;;;;4984274;28;20181;-91
2023/02/02 10:35:48;;;;;;;23.15;4.38;;;8.80;99.90;;;;;;4998876;28;20074;-91
2023/02/02 10:38:35;;;;;;;20.58;4.53;;;8.80;99.90;;;;;;5001605;28;20030;-94
2023/02/02 10:41:37;;;;;;;19.60;3.97;;;8.80;99.90;;;;;;4992455;28;20479;-92
2023/02/02 10:44:21;;;;;;;21.63;4.63;;;8.80;99.90;;;;;;5001059;28;20090;-93
2023/02/02 10:46:52;;;;;;;22.20;4.40;;;8.80;99.90;;;;;;5001972;28;20038;-90
2023/02/02 10:49:38;;;;;;;17.55;4.38;;;8.80;99.90;;;;;;5000730;28;20038;-90
2023/02/02 10:52:10;;;;;;;17.85;5.55;;;8.80;99.90;;;;;;5001273;28;20045;-90
2023/02/02 10:54:43;;;;;;;21.48;4.97;;;8.80;99.90;;;;;;5001840;28;20030;-90
2023/02/02 10:57:14;;;;;;;21.80;4.78;;;8.80;99.90;;;;;;5002873;28;20399;-91
2023/02/02 10:59:56;;;;;;;16.05;4.45;;;8.90;99.90;;;;;;5005425;28;20041;-90
2023/02/02 11:02:30;;;;;;;20.35;4.93;;;8.90;99.90;;;;;;5011932;28;20030;-91
2023/02/02 11:08:01;;;;;;;19.60;4.63;;;8.90;99.90;;;;;;5018961;28;20105;-89
2023/02/02 11:10:31;;;;;;;28.63;5.35;;;8.90;99.90;;;;;;5021782;28;20105;-90
2023/02/02 11:13:00;;;;;;;19.10;4.18;;;8.90;99.90;;;;;;5017290;28;20026;-91
2023/02/02 11:15:29;;;;;;;20.17;5.05;;;9.00;99.90;;;;;;5016949;28;20033;-91
2023/02/02 11:18:14;;;;;;;24.65;4.45;;;8.90;99.90;;;;;;5014916;28;20038;-93
2023/02/02 11:20:41;;;;;;;33.92;5.65;;;9.00;99.90;;;;;;5002481;28;20041;-93
2023/02/02 11:23:20;;;;;;;25.50;5.18;;;8.90;99.90;;;;;;5000175;28;20034;-92
2023/02/02 11:25:55;;;;;;;17.15;4.70;;;8.90;99.90;;;;;;4984590;28;20034;-93
2023/02/02 11:28:34;;;;;;;16.20;4.50;;;8.90;99.90;;;;;;4999914;28;20406;-93
2023/02/02 11:31:01;;;;;;;24.63;5.03;;;8.90;99.90;;;;;;5000380;28;20579;-92
2023/02/02 11:33:32;;;;;;;19.70;5.45;;;8.90;99.90;;;;;;5000739;28;20038;-93
2023/02/02 11:36:04;;;;;;;23.75;5.20;;;8.90;99.90;;;;;;4999806;28;20108;-92
2023/02/02 11:38:30;;;;;;;17.63;4.65;;;8.90;99.90;;;;;;4999604;28;20029;-93
2023/02/02 11:41:02;;;;;;;25.45;4.57;;;8.90;99.90;;;;;;4983111;28;20116;-93
2023/02/02 11:43:29;;;;;;;17.38;4.78;;;8.90;99.90;;;;;;4999612;28;20033;-92
2023/02/02 11:45:59;;;;;;;15.90;4.57;;;9.00;99.90;;;;;;4998999;28;20394;-92
2023/02/02 11:48:35;;;;;;;21.50;5.30;;;9.00;99.90;;;;;;4999038;28;20474;-91
2023/02/02 11:51:02;;;;;;;20.60;4.43;;;8.90;99.90;;;;;;5006478;28;20040;-91
2023/02/02 11:53:29;;;;;;;20.17;4.93;;;8.90;99.90;;;;;;5011440;28;20156;-91
2023/02/02 11:55:58;;;;;;;22.55;5.32;;;8.90;99.90;;;;;;4999216;28;20463;-91
2023/02/02 11:58:49;;;;;;;21.10;4.32;;;8.90;99.90;;;;;;5000240;28;20479;-91
2023/02/02 12:01:28;;;;;;;27.27;4.67;;;8.90;99.90;;;;;;4999260;28;20068;-91
2023/02/02 12:04:17;;;;;;;19.85;5.22;;;8.90;99.90;;;;;;4998912;28;20125;-91
2023/02/02 12:06:43;;;;;;;22.50;4.22;;;9.00;99.90;;;;;;5014362;28;20040;-91
2023/02/02 12:09:18;;;;;;;22.08;5.03;;;9.00;99.90;;;;;;5019505;28;20088;-90
2023/02/02 12:11:56;;;;;;;22.92;4.07;;;9.00;99.90;;;;;;5008428;28;20041;-90
2023/02/02 12:14:43;;;;;;;16.88;5.00;;;9.00;99.90;;;;;;5006588;28;20084;-89
2023/02/02 12:17:37;;;;;;;17.67;4.55;;;9.00;99.90;;;;;;5006632;28;20033;-90
2023/02/02 12:20:11;;;;;;;17.63;4.47;;;9.00;99.90;;;;;;5010888;28;20038;-91
2023/02/02 12:23:04;;;;;;;16.10;3.38;;;9.00;99.90;;;;;;5009626;28;20038;-91
2023/02/02 12:25:54;;;;;;;26.90;4.35;;;9.00;99.90;;;;;;5002348;28;20126;-90
2023/02/02 12:28:47;;;;;;;16.75;4.97;;;9.00;99.90;;;;;;5006096;28;20430;-90
2023/02/02 12:31:28;;;;;;;14.13;3.55;;;9.00;99.90;;;;;;5017974;28;20053;-90
2023/02/02 12:34:14;;;;;;;15.15;3.42;;;9.00;99.90;;;;;;4998439;28;20042;-91
2023/02/02 12:37:05;;;;;;;17.35;3.78;;;9.00;99.90;;;;;;4998021;28;20030;-91
2023/02/02 12:39:59;;;;;;;20.38;4.35;;;9.00;99.90;;;;;;4998073;28;20570;-90
2023/02/02 12:42:56;;;;;;;19.90;3.05;;;9.00;99.90;;;;;;4994233;28;20117;-89
2023/02/02 12:45:40;;;;;;;14.38;3.20;;;9.00;99.90;;;;;;4998227;28;20038;-91
2023/02/02 12:48:40;;;;;;;21.33;3.53;;;9.00;99.90;;;;;;4997884;28;20387;-90
2023/02/02 12:51:50;;;;;;;19.38;3.10;;;9.00;99.90;;;;;;4997386;28;20038;-91
2023/02/02 12:54:19;;;;;;;18.90;2.97;;;9.00;99.90;;;;;;4978371;28;20094;-91
2023/02/02 12:57:00;;;;;;;24.45;4.97;;;9.00;99.90;;;;;;4978405;28;20034;-91
2023/02/02 12:59:44;;;;;;;23.50;3.10;;;9.00;99.90;;;;;;4978733;28;20034;-91
2023/02/02 13:02:59;;;;;;;15.13;3.53;;;9.00;99.90;;;;;;4977673;28;20042;-91
2023/02/02 13:05:55;;;;;;;14.82;3.10;;;9.00;99.90;;;;;;4969718;28;20081;-90
2023/02/02 13:08:47;;;;;;;21.58;4.20;;;9.00;99.90;;;;;;4978052;28;20035;-90
2023/02/02 13:11:28;;;;;;;19.83;4.03;;;9.00;99.90;;;;;;4978070;28;20035;-91
2023/02/02 13:14:05;;;;;;;23.38;4.47;;;9.00;99.90;;;;;;4978064;28;20038;-90
2023/02/02 13:16:34;;;;;;;23.38;4.57;;;8.90;99.90;;;;;;4970149;28;20034;-90
2023/02/02 13:19:05;;;;;;;30.27;4.95;;;8.90;99.90;;;;;;4971697;28;20041;-91
2023/02/02 13:21:32;;;;;;;27.70;5.60;;;8.90;99.90;;;;;;4989606;28;20035;-91
2023/02/02 13:24:02;;;;;;;20.92;4.47;;;8.90;99.90;;;;;;4975051;28;20042;-91
2023/02/02 13:26:36;;;;;;;27.10;4.77;;;8.90;99.90;;;;;;4992348;28;20049;-91
2023/02/02 13:29:10;;;;;;;23.52;4.90;;;8.90;99.90;;;;;;4988971;28;20039;-92